createdAt,value
2023-12-04T00:01:18.601Z,5.13
2023-12-04T00:03:45.903Z,6.17
2023-12-04T00:06:13.437Z,5.97
2023-12-04T00:08:40.604Z,7.00
2023-12-04T00:11:08.070Z,6.90
2023-12-04T00:13:35.852Z,6.67
2023-12-04T00:16:02.990Z,6.80
2023-12-04T00:18:30.182Z,6.73
2023-12-04T00:20:57.657Z,7.13
2023-12-04T00:23:24.506Z,6.53
2023-12-04T00:25:51.210Z,7.13
2023-12-04T00:28:18.007Z,6.37
2023-12-04T00:30:45.966Z,5.97
2023-12-04T00:33:12.824Z,6.73
2023-12-04T00:35:39.599Z,5.43
2023-12-04T00:38:06.370Z,6.67
2023-12-04T00:40:34.450Z,6.73
2023-12-04T00:43:01.297Z,6.80
2023-12-04T00:45:28.181Z,5.90
2023-12-04T00:47:55.048Z,6.90
2023-12-04T00:50:21.996Z,7.37
2023-12-04T00:52:49.112Z,6.43
2023-12-04T00:55:15.896Z,6.17
2023-12-04T00:57:42.712Z,6.37
2023-12-04T01:00:10.170Z,6.33
2023-12-04T01:02:36.921Z,6.23
2023-12-04T01:05:03.921Z,6.30
2023-12-04T01:07:30.739Z,5.70
2023-12-04T01:09:57.532Z,6.93
2023-12-04T01:12:24.396Z,6.03
2023-12-04T01:14:51.226Z,5.70
2023-12-04T01:17:18.020Z,6.60
2023-12-04T01:19:44.780Z,5.50
2023-12-04T01:22:11.549Z,6.23
2023-12-04T01:24:38.400Z,5.37
2023-12-04T01:27:05.483Z,5.87
2023-12-04T01:29:33.189Z,5.23
2023-12-04T01:31:59.965Z,5.63
2023-12-04T01:34:26.918Z,5.57
2023-12-04T01:36:53.841Z,5.23
2023-12-04T01:39:20.684Z,4.40
2023-12-04T01:41:47.461Z,5.63
2023-12-04T01:44:14.283Z,5.37
2023-12-04T01:46:41.617Z,4.60
2023-12-04T01:49:09.040Z,6.07
2023-12-04T01:51:36.700Z,4.83
2023-12-04T01:54:05.684Z,4.43
2023-12-04T01:56:33.706Z,5.13
2023-12-04T01:59:01.134Z,5.40
2023-12-04T02:01:28.579Z,4.70
2023-12-04T02:03:57.338Z,4.97
2023-12-04T02:06:24.225Z,5.03
2023-12-04T02:08:50.960Z,4.63
2023-12-04T02:11:17.844Z,4.67
2023-12-04T02:13:44.789Z,5.17
2023-12-04T02:16:15.985Z,4.80
2023-12-04T02:18:44.455Z,5.10
2023-12-04T02:21:11.317Z,4.67
2023-12-04T02:23:38.124Z,4.33
2023-12-04T02:26:11.873Z,4.33
2023-12-04T02:28:39.566Z,3.93
2023-12-04T02:31:08.216Z,4.13
2023-12-04T02:33:37.023Z,4.53
2023-12-04T02:36:06.551Z,4.30
2023-12-04T02:38:33.779Z,6.23
2023-12-04T02:41:00.783Z,4.97
2023-12-04T02:43:27.563Z,4.27
2023-12-04T02:45:54.478Z,3.83
2023-12-04T02:48:21.477Z,4.47
2023-12-04T02:50:48.272Z,3.93
2023-12-04T02:53:15.064Z,3.80
2023-12-04T02:55:41.846Z,3.40
2023-12-04T02:58:08.624Z,4.23
2023-12-04T03:00:35.520Z,4.07
2023-12-04T03:03:02.355Z,4.03
2023-12-04T03:05:29.122Z,3.80
2023-12-04T03:07:55.877Z,4.83
2023-12-04T03:10:22.687Z,4.33
2023-12-04T03:12:49.506Z,4.60
2023-12-04T03:15:16.471Z,4.00
2023-12-04T03:17:43.268Z,3.17
2023-12-04T03:20:10.752Z,4.33
2023-12-04T03:22:38.294Z,4.47
2023-12-04T03:25:05.709Z,4.13
2023-12-04T03:27:32.517Z,4.23
2023-12-04T03:29:59.352Z,3.87
2023-12-04T03:32:26.174Z,4.50
2023-12-04T03:34:52.961Z,5.00
2023-12-04T03:37:19.710Z,3.97
2023-12-04T03:39:46.544Z,4.50
2023-12-04T03:42:13.416Z,3.77
2023-12-04T03:44:40.180Z,3.83
2023-12-04T03:47:06.979Z,4.03
2023-12-04T03:49:33.806Z,3.60
2023-12-04T03:52:00.727Z,4.20
2023-12-04T03:54:27.483Z,3.87
2023-12-04T03:56:54.551Z,4.40
2023-12-04T03:59:21.490Z,3.80
2023-12-04T04:01:48.277Z,3.77
2023-12-04T04:04:15.178Z,4.33
2023-12-04T04:06:42.019Z,4.33
2023-12-04T04:09:08.892Z,3.30
2023-12-04T04:11:36.627Z,4.17
2023-12-04T04:14:03.348Z,3.50
2023-12-04T04:16:30.106Z,3.90
2023-12-04T04:18:57.322Z,3.97
2023-12-04T04:21:24.164Z,3.50
2023-12-04T04:23:50.966Z,3.67
2023-12-04T04:26:17.666Z,3.90
2023-12-04T04:28:44.498Z,3.70
2023-12-04T04:31:11.355Z,2.97
2023-12-04T04:33:38.279Z,4.00
2023-12-04T04:36:05.733Z,3.77
2023-12-04T04:38:32.459Z,3.60
2023-12-04T04:40:59.260Z,3.70
2023-12-04T04:43:26.098Z,3.33
2023-12-04T04:45:52.910Z,3.77
2023-12-04T04:48:21.070Z,2.90
2023-12-04T04:50:47.821Z,3.40
2023-12-04T04:53:14.634Z,3.40
2023-12-04T04:55:47.700Z,3.47
2023-12-04T04:58:17.300Z,4.10
2023-12-04T05:00:45.143Z,3.80
2023-12-04T05:03:11.915Z,3.53
2023-12-04T05:05:38.692Z,3.40
2023-12-04T05:08:05.774Z,4.17
2023-12-04T05:10:32.694Z,3.80
2023-12-04T05:12:59.951Z,3.83
2023-12-04T05:15:26.765Z,3.83
2023-12-04T05:17:54.843Z,3.60
2023-12-04T05:20:21.647Z,3.03
2023-12-04T05:22:50.057Z,5.03
2023-12-04T05:25:16.906Z,3.50
2023-12-04T05:27:43.730Z,2.53
2023-12-04T05:30:10.853Z,3.93
2023-12-04T05:32:37.650Z,3.23
2023-12-04T05:35:04.762Z,3.93
2023-12-04T05:37:31.512Z,3.50
2023-12-04T05:39:58.295Z,3.03
2023-12-04T05:42:25.028Z,3.10
2023-12-04T05:44:56.459Z,4.13
2023-12-04T05:47:23.432Z,4.10
2023-12-04T05:49:50.232Z,5.10
2023-12-04T05:52:17.190Z,4.33
2023-12-04T05:54:44.181Z,3.60
2023-12-04T05:57:10.910Z,3.93
2023-12-04T05:59:37.748Z,3.40
2023-12-04T06:02:04.721Z,3.53
2023-12-04T06:04:31.549Z,3.70
2023-12-04T06:06:58.364Z,3.40
2023-12-04T06:09:25.168Z,3.77
2023-12-04T06:11:51.972Z,3.60
2023-12-04T06:14:18.940Z,3.50
2023-12-04T06:16:46.051Z,3.43
2023-12-04T06:19:13.532Z,3.80
2023-12-04T06:21:41.190Z,3.03
2023-12-04T06:24:09.869Z,4.57
2023-12-04T06:26:42.315Z,5.60
2023-12-04T06:29:09.366Z,4.70
2023-12-04T06:31:36.762Z,3.63
2023-12-04T06:34:03.858Z,3.27
2023-12-04T06:36:36.483Z,3.63
2023-12-04T06:39:05.598Z,5.00
2023-12-04T06:41:32.633Z,3.53
2023-12-04T06:43:59.759Z,4.17
2023-12-04T06:46:30.183Z,3.20
2023-12-04T06:49:00.801Z,3.50
2023-12-04T06:51:28.085Z,3.30
2023-12-04T06:53:54.843Z,3.77
2023-12-04T06:56:21.596Z,4.43
2023-12-04T06:58:48.505Z,4.73
2023-12-04T07:01:15.358Z,5.23
2023-12-04T07:03:42.274Z,4.57
2023-12-04T07:06:09.410Z,4.60
2023-12-04T07:08:36.171Z,4.53
2023-12-04T07:11:03.100Z,4.90
2023-12-04T07:13:29.807Z,4.77
2023-12-04T07:15:56.596Z,3.57
2023-12-04T07:18:23.432Z,5.23
2023-12-04T07:20:50.431Z,4.63
2023-12-04T07:23:17.227Z,3.90
2023-12-04T07:25:43.982Z,3.67
2023-12-04T07:28:10.854Z,4.60
2023-12-04T07:30:37.706Z,7.00
2023-12-04T07:33:05.883Z,5.07
2023-12-04T07:35:35.050Z,8.13
2023-12-04T07:38:01.815Z,9.90
2023-12-04T07:40:28.581Z,4.23
2023-12-04T07:42:55.386Z,4.37
2023-12-04T07:45:22.614Z,5.43
2023-12-04T07:47:49.565Z,6.43
2023-12-04T07:50:16.359Z,11.60
2023-12-04T07:52:43.132Z,8.97
2023-12-04T07:55:10.003Z,9.50
2023-12-04T07:57:36.878Z,6.23
2023-12-04T08:00:04.202Z,5.03
2023-12-04T08:02:32.056Z,5.80
2023-12-04T08:05:00.124Z,5.07
2023-12-04T08:07:26.988Z,4.53
2023-12-04T08:09:55.183Z,3.90
2023-12-04T08:12:22.060Z,6.27
2023-12-04T08:14:48.968Z,6.37
2023-12-04T08:17:15.810Z,4.27
2023-12-04T08:19:43.162Z,8.60
2023-12-04T08:22:10.194Z,5.53
2023-12-04T08:24:37.137Z,4.33
2023-12-04T08:27:04.126Z,4.70
2023-12-04T08:29:30.924Z,3.73
2023-12-04T08:31:57.801Z,4.37
2023-12-04T08:34:24.630Z,4.93
2023-12-04T08:36:51.513Z,5.10
2023-12-04T08:39:18.278Z,5.40
2023-12-04T08:41:55.081Z,5.53
2023-12-04T08:44:28.427Z,4.57
2023-12-04T08:46:58.968Z,4.50
2023-12-04T08:49:33.162Z,4.90
2023-12-04T08:52:06.977Z,5.47
2023-12-04T08:54:34.438Z,7.00
2023-12-04T08:57:02.480Z,5.80
2023-12-04T08:59:30.145Z,5.13
2023-12-04T09:01:57.093Z,4.73
2023-12-04T09:04:24.171Z,10.47
2023-12-04T09:09:20.876Z,5.13
2023-12-04T09:11:48.812Z,3.93
2023-12-04T09:14:15.890Z,4.03
2023-12-04T09:16:43.289Z,4.30
2023-12-04T09:19:10.285Z,5.43
2023-12-04T09:21:37.176Z,6.23
2023-12-04T09:24:04.300Z,6.47
2023-12-04T09:26:31.140Z,7.87
2023-12-04T09:28:58.876Z,11.20
2023-12-04T09:31:25.747Z,11.60
2023-12-04T09:33:53.297Z,14.70
2023-12-04T09:36:20.250Z,15.20
2023-12-04T09:38:47.987Z,14.43
2023-12-04T09:41:17.033Z,15.13
2023-12-04T09:43:46.118Z,15.57
2023-12-04T09:46:13.540Z,14.07
2023-12-04T09:48:44.423Z,13.10
2023-12-04T09:51:12.306Z,14.27
2023-12-04T09:53:40.853Z,13.87
2023-12-04T09:56:10.367Z,14.83
2023-12-04T09:58:41.367Z,16.47
2023-12-04T10:01:08.693Z,17.13
2023-12-04T10:03:36.894Z,15.83
2023-12-04T10:06:05.511Z,17.07
2023-12-04T10:08:32.420Z,15.83
2023-12-04T10:11:00.128Z,16.47
2023-12-04T10:13:56.135Z,14.70
2023-12-04T10:16:15.327Z,12.97
2023-12-04T10:18:42.475Z,11.30
2023-12-04T10:21:13.719Z,12.33
2023-12-04T10:23:45.867Z,13.07
2023-12-04T10:26:17.119Z,11.33
2023-12-04T10:29:01.338Z,12.03
2023-12-04T10:31:32.682Z,11.57
2023-12-04T10:33:59.514Z,11.43
2023-12-04T10:36:26.532Z,11.40
2023-12-04T10:39:01.252Z,12.17
2023-12-04T10:41:28.719Z,12.93
2023-12-04T10:44:01.426Z,9.73
2023-12-04T10:46:37.320Z,11.20
2023-12-04T10:49:06.798Z,9.80
2023-12-04T10:51:35.545Z,8.60
2023-12-04T10:54:02.964Z,8.13
2023-12-04T10:56:40.807Z,8.03
2023-12-04T10:59:13.492Z,8.27
2023-12-04T11:01:43.895Z,7.60
2023-12-04T11:04:18.555Z,7.80
2023-12-04T11:06:49.884Z,7.57
2023-12-04T11:09:19.912Z,8.40
2023-12-04T11:11:52.361Z,8.50
2023-12-04T11:14:23.826Z,7.83
2023-12-04T11:16:55.646Z,8.00
2023-12-04T11:19:50.819Z,7.83
2023-12-04T11:22:21.302Z,7.03
2023-12-04T11:24:49.893Z,8.00
2023-12-04T11:27:19.264Z,8.77
2023-12-04T11:29:49.901Z,8.37
2023-12-04T11:32:20.704Z,8.43
2023-12-04T11:35:00.507Z,8.60
2023-12-04T11:37:27.734Z,8.93
2023-12-04T11:39:55.412Z,8.90
2023-12-04T11:42:25.137Z,8.67
2023-12-04T11:44:59.966Z,8.67
2023-12-04T11:47:29.469Z,7.27
2023-12-04T11:49:56.400Z,8.40
2023-12-04T11:52:34.691Z,8.03
2023-12-04T11:55:07.117Z,8.30
2023-12-04T11:57:42.027Z,10.17
2023-12-04T12:00:24.169Z,12.93
2023-12-04T12:03:15.650Z,13.10
2023-12-04T12:05:42.263Z,10.97
2023-12-04T12:08:10.105Z,10.13
2023-12-04T12:10:38.777Z,10.13
2023-12-04T12:13:05.912Z,8.40
2023-12-04T12:15:34.674Z,8.03
2023-12-04T12:18:01.669Z,8.10
2023-12-04T12:20:28.665Z,10.27
2023-12-04T12:22:55.749Z,12.40
2023-12-04T12:25:24.000Z,16.37
2023-12-04T12:27:52.084Z,11.50
2023-12-04T12:30:18.913Z,11.37
2023-12-04T12:32:45.775Z,12.10
2023-12-04T12:35:12.884Z,11.20
2023-12-04T12:37:40.563Z,10.87
2023-12-04T12:40:11.147Z,15.07
2023-12-04T12:42:45.293Z,11.03
2023-12-04T12:45:13.552Z,9.33
2023-12-04T12:47:44.853Z,10.53
2023-12-04T12:50:15.061Z,10.47
2023-12-04T12:52:44.581Z,9.93
2023-12-04T12:55:11.756Z,10.97
2023-12-04T12:57:39.014Z,10.50
2023-12-04T13:00:08.177Z,10.73
2023-12-04T13:02:37.750Z,10.60
2023-12-04T13:05:06.025Z,10.90
2023-12-04T13:07:33.343Z,9.40
2023-12-04T13:10:00.243Z,10.90
2023-12-04T13:12:27.110Z,10.30
2023-12-04T13:14:54.251Z,9.93
2023-12-04T13:17:21.442Z,9.10
2023-12-04T13:19:48.682Z,8.03
2023-12-04T13:22:16.055Z,8.37
2023-12-04T13:24:42.928Z,8.60
2023-12-04T13:27:10.426Z,7.90
2023-12-04T13:29:37.218Z,8.13
2023-12-04T13:32:05.496Z,7.80
2023-12-04T13:34:34.731Z,7.87
2023-12-04T13:37:01.584Z,7.33
2023-12-04T13:39:37.655Z,6.93
2023-12-04T13:42:23.675Z,8.77
2023-12-04T13:44:52.753Z,11.17
2023-12-04T13:47:19.538Z,10.83
2023-12-04T13:49:48.000Z,11.07
2023-12-04T13:52:14.955Z,10.73
2023-12-04T13:54:48.457Z,12.60
2023-12-04T13:57:22.341Z,16.37
2023-12-04T13:59:49.406Z,11.23
2023-12-04T14:02:16.958Z,9.97
2023-12-04T14:04:44.608Z,9.77
2023-12-04T14:07:13.799Z,11.53
2023-12-04T14:09:41.610Z,10.17
2023-12-04T14:12:09.573Z,9.33
2023-12-04T14:14:36.923Z,8.77
2023-12-04T14:17:05.697Z,10.63
2023-12-04T14:19:33.356Z,10.30
2023-12-04T14:22:00.744Z,10.67
2023-12-04T14:24:27.603Z,10.03
2023-12-04T14:26:57.381Z,12.77
2023-12-04T14:29:24.571Z,12.20
2023-12-04T14:31:51.535Z,11.30
2023-12-04T14:34:18.499Z,10.77
2023-12-04T14:36:45.309Z,9.80
2023-12-04T14:39:13.579Z,10.13
2023-12-04T14:41:40.538Z,9.80
2023-12-04T14:44:07.344Z,9.10
2023-12-04T14:46:34.258Z,9.17
2023-12-04T14:49:01.048Z,8.30
2023-12-04T14:51:28.613Z,8.20
2023-12-04T14:54:14.247Z,9.30
2023-12-04T14:56:44.686Z,8.93
2023-12-04T14:59:30.134Z,9.67
2023-12-04T15:02:15.678Z,9.30
2023-12-04T15:05:01.586Z,7.80
2023-12-04T15:07:47.197Z,8.97
2023-12-04T15:10:49.194Z,7.77
2023-12-04T15:13:34.789Z,8.77
2023-12-04T15:16:01.562Z,8.50
2023-12-04T15:18:39.438Z,8.37
2023-12-04T15:21:07.909Z,9.37
2023-12-04T15:23:34.708Z,8.57
2023-12-04T15:26:02.764Z,9.13
2023-12-04T15:28:29.747Z,10.63
2023-12-04T15:30:57.270Z,9.73
2023-12-04T15:33:27.338Z,9.00
2023-12-04T15:35:54.221Z,9.57
2023-12-04T15:38:21.760Z,9.13
2023-12-04T15:40:48.970Z,10.10
2023-12-04T15:43:16.305Z,10.03
2023-12-04T15:45:44.090Z,9.93
2023-12-04T15:48:12.505Z,11.13
2023-12-04T15:50:39.540Z,12.57
2023-12-04T15:53:06.401Z,14.47
2023-12-04T15:55:33.320Z,13.97
2023-12-04T15:58:00.227Z,12.27
2023-12-04T16:00:28.404Z,12.27
2023-12-04T16:02:55.805Z,14.47
2023-12-04T16:05:25.253Z,12.73
2023-12-04T16:07:52.425Z,12.07
2023-12-04T16:10:19.343Z,12.10
2023-12-04T16:12:46.496Z,13.93
2023-12-04T16:15:14.113Z,12.60
2023-12-04T16:17:41.151Z,13.50
2023-12-04T16:20:12.536Z,12.50
2023-12-04T16:22:44.471Z,13.60
2023-12-04T16:25:19.539Z,10.47
2023-12-04T16:27:46.970Z,10.57
2023-12-04T16:30:14.651Z,9.70
2023-12-04T16:32:41.758Z,10.50
2023-12-04T16:35:10.208Z,9.17
2023-12-04T16:37:38.166Z,9.90
2023-12-04T16:40:05.818Z,10.03
2023-12-04T16:42:33.481Z,9.33
2023-12-04T16:45:00.467Z,9.37
2023-12-04T16:47:27.419Z,8.63
2023-12-04T16:49:54.650Z,9.13
2023-12-04T16:52:21.685Z,11.50
2023-12-04T16:54:52.364Z,12.30
2023-12-04T16:57:19.458Z,9.57
2023-12-04T16:59:46.713Z,8.40
2023-12-04T17:02:13.664Z,13.30
2023-12-04T17:04:40.807Z,13.63
2023-12-04T17:07:07.730Z,13.13
2023-12-04T17:09:35.279Z,10.90
2023-12-04T17:12:02.387Z,13.47
2023-12-04T17:14:29.340Z,17.73
2023-12-04T17:16:56.259Z,9.87
2023-12-04T17:19:23.150Z,14.83
2023-12-04T17:21:49.958Z,13.67
2023-12-04T17:24:16.841Z,18.27
2023-12-04T17:26:43.597Z,19.10
2023-12-04T17:29:10.454Z,9.23
2023-12-04T17:31:40.023Z,7.97
2023-12-04T17:34:06.944Z,7.07
2023-12-04T17:36:33.964Z,6.93
2023-12-04T17:39:00.855Z,6.53
2023-12-04T17:41:27.671Z,6.53
2023-12-04T17:43:54.512Z,7.67
2023-12-04T17:46:21.400Z,6.30
2023-12-04T17:48:48.973Z,7.53
2023-12-04T17:51:19.097Z,7.33
2023-12-04T17:53:45.933Z,8.43
2023-12-04T17:56:12.679Z,8.90
2023-12-04T17:58:39.502Z,7.50
2023-12-04T18:01:07.090Z,7.53
2023-12-04T18:03:36.646Z,7.87
2023-12-04T18:06:05.434Z,7.80
2023-12-04T18:08:34.848Z,7.40
2023-12-04T18:11:01.875Z,8.47
2023-12-04T18:13:28.864Z,7.77
2023-12-04T18:15:56.110Z,7.63
2023-12-04T18:18:24.568Z,7.00
2023-12-04T18:20:52.776Z,8.00
2023-12-04T18:23:19.808Z,8.43
2023-12-04T18:25:48.427Z,8.27
2023-12-04T18:28:15.583Z,8.10
2023-12-04T18:30:43.455Z,9.33
2023-12-04T18:33:10.850Z,8.80
2023-12-04T18:35:37.895Z,9.70
2023-12-04T18:38:18.702Z,8.63
2023-12-04T18:40:45.894Z,9.23
2023-12-04T18:43:13.462Z,10.40
2023-12-04T18:45:40.564Z,8.33
2023-12-04T18:48:09.721Z,10.00
2023-12-04T18:50:40.676Z,11.53
2023-12-04T18:53:10.306Z,10.30
2023-12-04T18:55:40.526Z,9.57
2023-12-04T18:58:10.709Z,9.40
2023-12-04T19:00:40.253Z,33.07
2023-12-04T19:03:07.221Z,12.67
2023-12-04T19:05:34.472Z,9.97
2023-12-04T19:08:03.002Z,9.40
2023-12-04T19:10:29.852Z,9.93
2023-12-04T19:12:57.169Z,9.93
2023-12-04T19:15:25.636Z,9.43
2023-12-04T19:17:53.571Z,10.73
2023-12-04T19:20:20.452Z,11.43
2023-12-04T19:22:47.195Z,9.87
2023-12-04T19:25:14.878Z,10.27
2023-12-04T19:27:41.826Z,9.67
2023-12-04T19:30:09.163Z,9.67
2023-12-04T19:32:36.312Z,9.00
2023-12-04T19:35:03.599Z,10.53
2023-12-04T19:37:30.471Z,11.40
2023-12-04T19:39:57.226Z,10.47
2023-12-04T19:42:27.223Z,9.50
2023-12-04T19:44:57.092Z,9.90
2023-12-04T19:47:24.199Z,9.93
2023-12-04T19:49:51.070Z,10.13
2023-12-04T19:52:17.956Z,11.47
2023-12-04T19:54:45.162Z,13.43
2023-12-04T19:57:12.184Z,12.13
2023-12-04T19:59:38.975Z,10.63
2023-12-04T20:02:06.404Z,11.33
2023-12-04T20:04:34.781Z,10.70
2023-12-04T20:07:01.856Z,10.57
2023-12-04T20:09:29.231Z,10.50
2023-12-04T20:11:56.116Z,11.67
2023-12-04T20:14:23.988Z,11.60
2023-12-04T20:16:52.343Z,11.83
2023-12-04T20:19:20.612Z,13.97
2023-12-04T20:21:47.753Z,12.40
2023-12-04T20:24:16.053Z,13.23
2023-12-04T20:26:43.581Z,11.60
2023-12-04T20:29:10.726Z,11.63
2023-12-04T20:31:37.654Z,11.43
2023-12-04T20:34:05.079Z,10.10
2023-12-04T20:36:31.994Z,10.47
2023-12-04T20:38:59.094Z,10.40
2023-12-04T20:41:26.041Z,9.97
2023-12-04T20:43:52.913Z,10.03
2023-12-04T20:46:19.876Z,10.30
2023-12-04T20:48:47.024Z,10.50
2023-12-04T20:51:14.649Z,10.50
2023-12-04T20:53:41.636Z,10.40
2023-12-04T20:56:09.134Z,10.97
2023-12-04T20:58:36.114Z,10.97
2023-12-04T21:01:04.194Z,10.33
2023-12-04T21:03:31.312Z,10.50
2023-12-04T21:05:58.260Z,10.17
2023-12-04T21:08:25.256Z,10.73
2023-12-04T21:10:52.192Z,10.20
2023-12-04T21:13:19.005Z,10.17
2023-12-04T21:15:48.050Z,10.80
2023-12-04T21:18:16.120Z,10.93
2023-12-04T21:20:44.705Z,9.77
2023-12-04T21:23:11.726Z,10.53
2023-12-04T21:25:38.896Z,10.00
2023-12-04T21:28:07.341Z,10.50
2023-12-04T21:30:34.689Z,10.97
2023-12-04T21:33:01.807Z,10.73
2023-12-04T21:35:28.650Z,10.77
2023-12-04T21:37:56.662Z,10.87
2023-12-04T21:40:24.476Z,11.00
2023-12-04T21:42:51.488Z,10.20
2023-12-04T21:45:21.231Z,11.83
2023-12-04T21:47:49.679Z,12.30
2023-12-04T21:50:16.791Z,11.77
2023-12-04T21:52:43.702Z,11.20
2023-12-04T21:55:13.139Z,12.73
2023-12-04T21:57:40.651Z,12.03
2023-12-04T22:00:11.867Z,14.23
2023-12-04T22:02:39.115Z,12.73
2023-12-04T22:05:06.577Z,12.90
2023-12-04T22:07:34.172Z,11.83
2023-12-04T22:10:01.074Z,12.43
2023-12-04T22:12:28.075Z,12.90
2023-12-04T22:14:55.101Z,12.47
2023-12-04T22:17:22.063Z,12.97
2023-12-04T22:19:49.023Z,12.30
2023-12-04T22:22:16.883Z,13.60
2023-12-04T22:24:43.825Z,15.13
2023-12-04T22:27:10.779Z,11.73
2023-12-04T22:29:37.853Z,11.83
2023-12-04T22:32:04.845Z,13.13
2023-12-04T22:34:32.482Z,12.03
2023-12-04T22:36:59.339Z,12.43
2023-12-04T22:39:26.205Z,11.80
2023-12-04T22:41:53.099Z,10.80
2023-12-04T22:44:19.898Z,17.70
2023-12-04T22:46:47.182Z,13.50
2023-12-04T22:49:14.137Z,11.60
2023-12-04T22:51:41.153Z,12.17
2023-12-04T22:54:07.995Z,10.90
2023-12-04T22:56:34.783Z,11.23
2023-12-04T22:59:01.711Z,11.37
2023-12-04T23:01:28.533Z,10.67
2023-12-04T23:03:56.249Z,16.37
2023-12-04T23:06:23.905Z,14.23
2023-12-04T23:08:50.782Z,12.60
2023-12-04T23:11:18.047Z,13.43
2023-12-04T23:13:45.077Z,13.17
2023-12-04T23:16:12.021Z,13.13
2023-12-04T23:18:39.027Z,12.83
2023-12-04T23:21:08.436Z,13.00
2023-12-04T23:23:36.950Z,10.43
2023-12-04T23:26:04.223Z,10.63
2023-12-04T23:28:31.136Z,11.63
2023-12-04T23:30:57.995Z,10.57
2023-12-04T23:33:25.700Z,8.97
2023-12-04T23:35:53.298Z,9.63
2023-12-04T23:38:20.424Z,9.63
2023-12-04T23:40:47.188Z,9.70
2023-12-04T23:43:14.042Z,9.43
2023-12-04T23:45:45.712Z,10.27
2023-12-04T23:48:20.385Z,10.40
2023-12-04T23:50:47.579Z,11.10
2023-12-04T23:53:14.386Z,9.70
2023-12-04T23:55:41.310Z,8.77
2023-12-04T23:58:08.269Z,9.00
